sensor_id;sensor_type;location;lat;lon;timestamp;P1;durP1;ratioP1;P2;durP2;ratioP2
31336;SDS011;22846;42.654;23.314;2022-10-16T00:01:20;6.22;;;4.43;;
31336;SDS011;22846;42.654;23.314;2022-10-16T00:03:47;5.97;;;4.32;;
31336;SDS011;22846;42.654;23.314;2022-10-16T00:06:14;6.13;;;4.55;;
31336;SDS011;22846;42.654;23.314;2022-10-16T00:08:41;5.72;;;4.30;;
31336;SDS011;22846;42.654;23.314;2022-10-16T00:11:08;5.65;;;4.45;;
31336;SDS011;22846;42.654;23.314;2022-10-16T00:13:36;5.22;;;4.38;;
31336;SDS011;22846;42.654;23.314;2022-10-16T00:16:03;5.70;;;4.32;;
31336;SDS011;22846;42.654;23.314;2022-10-16T00:18:29;4.63;;;3.90;;
31336;SDS011;22846;42.654;23.314;2022-10-16T00:21:00;5.25;;;3.95;;
31336;SDS011;22846;42.654;23.314;2022-10-16T00:23:30;4.57;;;3.83;;
31336;SDS011;22846;42.654;23.314;2022-10-16T00:26:00;6.28;;;4.32;;
31336;SDS011;22846;42.654;23.314;2022-10-16T00:28:28;5.63;;;3.88;;
31336;SDS011;22846;42.654;23.314;2022-10-16T00:30:53;5.78;;;4.10;;
31336;SDS011;22846;42.654;23.314;2022-10-16T00:33:19;4.75;;;4.05;;
31336;SDS011;22846;42.654;23.314;2022-10-16T00:35:45;5.65;;;3.80;;
31336;SDS011;22846;42.654;23.314;2022-10-16T00:38:10;4.78;;;3.92;;
31336;SDS011;22846;42.654;23.314;2022-10-16T00:40:36;5.28;;;3.95;;
31336;SDS011;22846;42.654;23.314;2022-10-16T00:43:02;5.25;;;4.10;;
31336;SDS011;22846;42.654;23.314;2022-10-16T00:45:27;5.50;;;4.25;;
31336;SDS011;22846;42.654;23.314;2022-10-16T00:47:53;5.28;;;3.88;;
31336;SDS011;22846;42.654;23.314;2022-10-16T00:52:55;4.15;;;3.53;;
31336;SDS011;22846;42.654;23.314;2022-10-16T00:55:21;4.55;;;3.80;;
31336;SDS011;22846;42.654;23.314;2022-10-16T00:57:47;4.93;;;3.90;;
31336;SDS011;22846;42.654;23.314;2022-10-16T01:00:16;4.50;;;3.22;;
31336;SDS011;22846;42.654;23.314;2022-10-16T01:02:51;5.43;;;3.67;;
31336;SDS011;22846;42.654;23.314;2022-10-16T01:05:19;4.80;;;3.72;;
31336;SDS011;22846;42.654;23.314;2022-10-16T01:10:50;3.95;;;3.30;;
31336;SDS011;22846;42.654;23.314;2022-10-16T01:13:24;4.47;;;3.65;;
31336;SDS011;22846;42.654;23.314;2022-10-16T01:16:05;5.65;;;3.58;;
31336;SDS011;22846;42.654;23.314;2022-10-16T01:18:42;4.00;;;3.20;;
31336;SDS011;22846;42.654;23.314;2022-10-16T01:21:24;5.47;;;3.80;;
31336;SDS011;22846;42.654;23.314;2022-10-16T01:29:03;3.97;;;3.10;;
31336;SDS011;22846;42.654;23.314;2022-10-16T01:31:35;4.90;;;3.42;;
31336;SDS011;22846;42.654;23.314;2022-10-16T01:34:05;4.32;;;3.17;;
31336;SDS011;22846;42.654;23.314;2022-10-16T01:36:37;5.65;;;3.50;;
31336;SDS011;22846;42.654;23.314;2022-10-16T01:39:04;4.30;;;3.20;;
31336;SDS011;22846;42.654;23.314;2022-10-16T01:41:36;4.28;;;3.42;;
31336;SDS011;22846;42.654;23.314;2022-10-16T01:44:08;4.35;;;3.40;;
31336;SDS011;22846;42.654;23.314;2022-10-16T01:46:42;4.13;;;3.20;;
31336;SDS011;22846;42.654;23.314;2022-10-16T01:49:11;3.78;;;3.22;;
31336;SDS011;22846;42.654;23.314;2022-10-16T01:51:38;4.28;;;3.60;;
31336;SDS011;22846;42.654;23.314;2022-10-16T01:54:04;4.03;;;3.15;;
31336;SDS011;22846;42.654;23.314;2022-10-16T01:56:33;3.85;;;3.33;;
31336;SDS011;22846;42.654;23.314;2022-10-16T02:01:35;3.63;;;3.00;;
31336;SDS011;22846;42.654;23.314;2022-10-16T02:04:07;4.78;;;3.58;;
31336;SDS011;22846;42.654;23.314;2022-10-16T02:06:36;4.05;;;3.60;;
31336;SDS011;22846;42.654;23.314;2022-10-16T02:09:02;3.88;;;3.00;;
31336;SDS011;22846;42.654;23.314;2022-10-16T02:11:27;4.30;;;2.97;;
31336;SDS011;22846;42.654;23.314;2022-10-16T02:13:55;3.95;;;3.05;;
31336;SDS011;22846;42.654;23.314;2022-10-16T02:19:05;3.83;;;3.28;;
31336;SDS011;22846;42.654;23.314;2022-10-16T02:27:10;3.50;;;2.97;;
31336;SDS011;22846;42.654;23.314;2022-10-16T02:29:43;3.63;;;3.17;;
31336;SDS011;22846;42.654;23.314;2022-10-16T02:32:15;4.40;;;2.80;;
31336;SDS011;22846;42.654;23.314;2022-10-16T02:34:45;3.42;;;3.00;;
31336;SDS011;22846;42.654;23.314;2022-10-16T02:37:11;3.90;;;3.10;;
31336;SDS011;22846;42.654;23.314;2022-10-16T02:39:38;3.35;;;2.80;;
31336;SDS011;22846;42.654;23.314;2022-10-16T02:42:09;4.30;;;2.97;;
31336;SDS011;22846;42.654;23.314;2022-10-16T02:44:35;5.57;;;3.20;;
31336;SDS011;22846;42.654;23.314;2022-10-16T02:47:00;3.55;;;2.72;;
31336;SDS011;22846;42.654;23.314;2022-10-16T02:49:26;3.78;;;2.88;;
31336;SDS011;22846;42.654;23.314;2022-10-16T02:51:51;3.67;;;2.95;;
31336;SDS011;22846;42.654;23.314;2022-10-16T02:54:17;4.18;;;2.95;;
31336;SDS011;22846;42.654;23.314;2022-10-16T02:56:42;3.72;;;3.10;;
31336;SDS011;22846;42.654;23.314;2022-10-16T02:59:07;3.97;;;2.65;;
31336;SDS011;22846;42.654;23.314;2022-10-16T03:01:33;3.50;;;2.67;;
31336;SDS011;22846;42.654;23.314;2022-10-16T03:03:58;4.43;;;3.33;;
31336;SDS011;22846;42.654;23.314;2022-10-16T03:06:24;3.00;;;2.42;;
31336;SDS011;22846;42.654;23.314;2022-10-16T03:08:49;3.40;;;2.70;;
31336;SDS011;22846;42.654;23.314;2022-10-16T03:11:15;3.70;;;2.72;;
31336;SDS011;22846;42.654;23.314;2022-10-16T03:13:40;3.33;;;2.90;;
31336;SDS011;22846;42.654;23.314;2022-10-16T03:16:06;3.47;;;2.80;;
31336;SDS011;22846;42.654;23.314;2022-10-16T03:18:31;4.03;;;2.60;;
31336;SDS011;22846;42.654;23.314;2022-10-16T03:20:56;3.80;;;2.72;;
31336;SDS011;22846;42.654;23.314;2022-10-16T03:23:22;3.25;;;2.70;;
31336;SDS011;22846;42.654;23.314;2022-10-16T03:25:47;3.85;;;2.90;;
31336;SDS011;22846;42.654;23.314;2022-10-16T03:28:13;3.65;;;2.85;;
31336;SDS011;22846;42.654;23.314;2022-10-16T03:30:38;3.03;;;2.72;;
31336;SDS011;22846;42.654;23.314;2022-10-16T03:33:04;3.50;;;2.47;;
31336;SDS011;22846;42.654;23.314;2022-10-16T03:35:30;3.40;;;2.70;;
31336;SDS011;22846;42.654;23.314;2022-10-16T03:37:55;3.05;;;2.75;;
31336;SDS011;22846;42.654;23.314;2022-10-16T03:40:21;3.42;;;2.65;;
31336;SDS011;22846;42.654;23.314;2022-10-16T03:42:47;3.17;;;2.60;;
31336;SDS011;22846;42.654;23.314;2022-10-16T03:45:12;3.28;;;2.70;;
31336;SDS011;22846;42.654;23.314;2022-10-16T03:47:37;3.15;;;2.75;;
31336;SDS011;22846;42.654;23.314;2022-10-16T03:50:03;2.92;;;2.63;;
31336;SDS011;22846;42.654;23.314;2022-10-16T03:52:29;3.17;;;2.72;;
31336;SDS011;22846;42.654;23.314;2022-10-16T03:54:55;4.03;;;2.83;;
31336;SDS011;22846;42.654;23.314;2022-10-16T03:57:20;2.95;;;2.65;;
31336;SDS011;22846;42.654;23.314;2022-10-16T03:59:46;3.38;;;2.45;;
31336;SDS011;22846;42.654;23.314;2022-10-16T04:02:12;2.50;;;2.30;;
31336;SDS011;22846;42.654;23.314;2022-10-16T04:04:37;4.25;;;2.72;;
31336;SDS011;22846;42.654;23.314;2022-10-16T04:07:03;3.30;;;2.72;;
31336;SDS011;22846;42.654;23.314;2022-10-16T04:09:29;2.88;;;2.42;;
31336;SDS011;22846;42.654;23.314;2022-10-16T04:11:54;2.83;;;2.40;;
31336;SDS011;22846;42.654;23.314;2022-10-16T04:14:19;3.45;;;2.67;;
31336;SDS011;22846;42.654;23.314;2022-10-16T04:16:45;3.25;;;2.58;;
31336;SDS011;22846;42.654;23.314;2022-10-16T04:19:10;3.03;;;2.72;;
31336;SDS011;22846;42.654;23.314;2022-10-16T04:21:36;2.70;;;2.10;;
31336;SDS011;22846;42.654;23.314;2022-10-16T04:24:02;3.35;;;2.65;;
31336;SDS011;22846;42.654;23.314;2022-10-16T04:26:28;3.70;;;2.63;;
31336;SDS011;22846;42.654;23.314;2022-10-16T04:28:53;2.47;;;2.28;;
31336;SDS011;22846;42.654;23.314;2022-10-16T04:31:19;2.92;;;2.42;;
31336;SDS011;22846;42.654;23.314;2022-10-16T04:33:45;2.42;;;1.92;;
31336;SDS011;22846;42.654;23.314;2022-10-16T04:36:10;3.25;;;2.53;;
31336;SDS011;22846;42.654;23.314;2022-10-16T04:38:36;4.88;;;2.70;;
31336;SDS011;22846;42.654;23.314;2022-10-16T04:41:02;2.92;;;2.45;;
31336;SDS011;22846;42.654;23.314;2022-10-16T04:43:28;3.03;;;2.38;;
31336;SDS011;22846;42.654;23.314;2022-10-16T04:45:54;2.55;;;2.33;;
31336;SDS011;22846;42.654;23.314;2022-10-16T04:48:19;3.88;;;2.42;;
31336;SDS011;22846;42.654;23.314;2022-10-16T04:50:45;2.40;;;2.20;;
31336;SDS011;22846;42.654;23.314;2022-10-16T04:53:10;2.60;;;2.35;;
31336;SDS011;22846;42.654;23.314;2022-10-16T04:55:36;2.85;;;2.40;;
31336;SDS011;22846;42.654;23.314;2022-10-16T04:58:02;2.95;;;2.65;;
31336;SDS011;22846;42.654;23.314;2022-10-16T05:00:27;3.30;;;2.40;;
31336;SDS011;22846;42.654;23.314;2022-10-16T05:02:53;2.85;;;2.53;;
31336;SDS011;22846;42.654;23.314;2022-10-16T05:05:18;3.28;;;2.38;;
31336;SDS011;22846;42.654;23.314;2022-10-16T05:07:48;2.80;;;2.50;;
31336;SDS011;22846;42.654;23.314;2022-10-16T05:10:14;2.90;;;2.60;;
31336;SDS011;22846;42.654;23.314;2022-10-16T05:12:40;2.97;;;2.40;;
31336;SDS011;22846;42.654;23.314;2022-10-16T05:15:06;3.65;;;2.25;;
31336;SDS011;22846;42.654;23.314;2022-10-16T05:17:32;3.13;;;2.60;;
31336;SDS011;22846;42.654;23.314;2022-10-16T05:19:57;3.67;;;2.45;;
31336;SDS011;22846;42.654;23.314;2022-10-16T05:22:22;2.47;;;2.25;;
31336;SDS011;22846;42.654;23.314;2022-10-16T05:24:48;2.70;;;2.35;;
31336;SDS011;22846;42.654;23.314;2022-10-16T05:27:13;3.03;;;2.63;;
31336;SDS011;22846;42.654;23.314;2022-10-16T05:29:47;2.45;;;2.20;;
31336;SDS011;22846;42.654;23.314;2022-10-16T05:32:14;3.97;;;2.90;;
31336;SDS011;22846;42.654;23.314;2022-10-16T05:34:40;3.40;;;3.10;;
31336;SDS011;22846;42.654;23.314;2022-10-16T05:37:06;5.45;;;3.20;;
31336;SDS011;22846;42.654;23.314;2022-10-16T05:39:32;3.63;;;2.90;;
31336;SDS011;22846;42.654;23.314;2022-10-16T05:41:57;3.17;;;2.50;;
31336;SDS011;22846;42.654;23.314;2022-10-16T05:44:22;2.92;;;2.60;;
31336;SDS011;22846;42.654;23.314;2022-10-16T05:46:48;3.60;;;2.75;;
31336;SDS011;22846;42.654;23.314;2022-10-16T05:49:14;2.60;;;2.30;;
31336;SDS011;22846;42.654;23.314;2022-10-16T05:51:39;3.55;;;2.72;;
31336;SDS011;22846;42.654;23.314;2022-10-16T05:54:04;3.50;;;2.70;;
31336;SDS011;22846;42.654;23.314;2022-10-16T05:56:30;2.78;;;2.40;;
31336;SDS011;22846;42.654;23.314;2022-10-16T05:58:55;2.63;;;2.28;;
31336;SDS011;22846;42.654;23.314;2022-10-16T06:01:21;4.53;;;2.78;;
31336;SDS011;22846;42.654;23.314;2022-10-16T06:03:49;4.93;;;2.38;;
31336;SDS011;22846;42.654;23.314;2022-10-16T06:06:18;3.10;;;2.25;;
31336;SDS011;22846;42.654;23.314;2022-10-16T06:08:45;5.55;;;2.70;;
31336;SDS011;22846;42.654;23.314;2022-10-16T06:11:13;4.53;;;2.80;;
31336;SDS011;22846;42.654;23.314;2022-10-16T06:13:43;2.85;;;2.33;;
31336;SDS011;22846;42.654;23.314;2022-10-16T06:16:10;4.30;;;2.45;;
31336;SDS011;22846;42.654;23.314;2022-10-16T06:18:37;3.05;;;2.40;;
31336;SDS011;22846;42.654;23.314;2022-10-16T06:21:10;3.17;;;2.17;;
31336;SDS011;22846;42.654;23.314;2022-10-16T06:23:41;3.35;;;2.50;;
31336;SDS011;22846;42.654;23.314;2022-10-16T06:26:07;4.45;;;2.70;;
31336;SDS011;22846;42.654;23.314;2022-10-16T06:28:34;3.33;;;2.40;;
31336;SDS011;22846;42.654;23.314;2022-10-16T06:31:00;3.85;;;2.38;;
31336;SDS011;22846;42.654;23.314;2022-10-16T06:33:26;3.55;;;2.22;;
31336;SDS011;22846;42.654;23.314;2022-10-16T06:35:52;4.30;;;2.30;;
31336;SDS011;22846;42.654;23.314;2022-10-16T06:38:17;2.70;;;2.17;;
31336;SDS011;22846;42.654;23.314;2022-10-16T06:40:43;2.83;;;2.30;;
31336;SDS011;22846;42.654;23.314;2022-10-16T06:43:08;4.95;;;2.72;;
31336;SDS011;22846;42.654;23.314;2022-10-16T06:45:34;2.42;;;2.22;;
31336;SDS011;22846;42.654;23.314;2022-10-16T06:47:59;6.25;;;2.33;;
31336;SDS011;22846;42.654;23.314;2022-10-16T06:50:24;4.07;;;2.17;;
31336;SDS011;22846;42.654;23.314;2022-10-16T06:52:50;3.50;;;2.45;;
31336;SDS011;22846;42.654;23.314;2022-10-16T06:55:15;5.53;;;2.22;;
31336;SDS011;22846;42.654;23.314;2022-10-16T06:57:42;4.28;;;2.10;;
31336;SDS011;22846;42.654;23.314;2022-10-16T07:00:08;4.32;;;2.22;;
31336;SDS011;22846;42.654;23.314;2022-10-16T07:02:34;3.13;;;2.30;;
31336;SDS011;22846;42.654;23.314;2022-10-16T07:04:59;2.53;;;2.13;;
31336;SDS011;22846;42.654;23.314;2022-10-16T07:07:25;3.75;;;2.38;;
31336;SDS011;22846;42.654;23.314;2022-10-16T07:09:51;2.78;;;2.35;;
31336;SDS011;22846;42.654;23.314;2022-10-16T07:12:17;2.47;;;2.00;;
31336;SDS011;22846;42.654;23.314;2022-10-16T07:14:42;2.72;;;2.40;;
31336;SDS011;22846;42.654;23.314;2022-10-16T07:17:08;4.32;;;2.30;;
31336;SDS011;22846;42.654;23.314;2022-10-16T07:19:33;3.40;;;2.30;;
31336;SDS011;22846;42.654;23.314;2022-10-16T07:21:59;2.67;;;2.20;;
31336;SDS011;22846;42.654;23.314;2022-10-16T07:24:24;3.60;;;2.38;;
31336;SDS011;22846;42.654;23.314;2022-10-16T07:26:50;4.95;;;2.88;;
31336;SDS011;22846;42.654;23.314;2022-10-16T07:29:17;3.63;;;2.58;;
31336;SDS011;22846;42.654;23.314;2022-10-16T07:31:43;4.22;;;2.30;;
31336;SDS011;22846;42.654;23.314;2022-10-16T07:34:10;4.45;;;2.10;;
31336;SDS011;22846;42.654;23.314;2022-10-16T07:36:36;5.28;;;2.70;;
31336;SDS011;22846;42.654;23.314;2022-10-16T07:39:02;4.25;;;2.35;;
31336;SDS011;22846;42.654;23.314;2022-10-16T07:41:28;3.17;;;2.20;;
31336;SDS011;22846;42.654;23.314;2022-10-16T07:43:53;3.10;;;2.22;;
31336;SDS011;22846;42.654;23.314;2022-10-16T07:46:20;4.00;;;2.42;;
31336;SDS011;22846;42.654;23.314;2022-10-16T07:48:46;5.47;;;2.40;;
31336;SDS011;22846;42.654;23.314;2022-10-16T07:51:17;6.53;;;2.67;;
31336;SDS011;22846;42.654;23.314;2022-10-16T07:53:43;6.25;;;2.55;;
31336;SDS011;22846;42.654;23.314;2022-10-16T07:56:10;4.75;;;2.58;;
31336;SDS011;22846;42.654;23.314;2022-10-16T07:58:36;8.32;;;3.78;;
31336;SDS011;22846;42.654;23.314;2022-10-16T08:01:04;10.18;;;5.90;;
31336;SDS011;22846;42.654;23.314;2022-10-16T08:03:30;11.85;;;7.10;;
31336;SDS011;22846;42.654;23.314;2022-10-16T08:05:59;11.05;;;6.50;;
31336;SDS011;22846;42.654;23.314;2022-10-16T08:08:25;13.90;;;5.90;;
31336;SDS011;22846;42.654;23.314;2022-10-16T08:10:51;11.57;;;5.00;;
31336;SDS011;22846;42.654;23.314;2022-10-16T08:13:17;9.95;;;4.93;;
31336;SDS011;22846;42.654;23.314;2022-10-16T08:15:43;10.43;;;4.32;;
31336;SDS011;22846;42.654;23.314;2022-10-16T08:18:09;9.85;;;4.45;;
31336;SDS011;22846;42.654;23.314;2022-10-16T08:20:36;10.77;;;3.78;;
31336;SDS011;22846;42.654;23.314;2022-10-16T08:23:01;14.88;;;6.70;;
31336;SDS011;22846;42.654;23.314;2022-10-16T08:25:27;11.98;;;4.95;;
31336;SDS011;22846;42.654;23.314;2022-10-16T08:27:53;16.08;;;4.97;;
31336;SDS011;22846;42.654;23.314;2022-10-16T08:30:19;15.07;;;4.28;;
31336;SDS011;22846;42.654;23.314;2022-10-16T08:32:45;10.50;;;4.70;;
31336;SDS011;22846;42.654;23.314;2022-10-16T08:35:11;15.32;;;4.45;;
31336;SDS011;22846;42.654;23.314;2022-10-16T08:37:38;10.63;;;4.50;;
31336;SDS011;22846;42.654;23.314;2022-10-16T08:40:05;9.90;;;4.35;;
31336;SDS011;22846;42.654;23.314;2022-10-16T08:50:13;8.10;;;4.15;;
31336;SDS011;22846;42.654;23.314;2022-10-16T08:55:56;7.53;;;3.90;;
31336;SDS011;22846;42.654;23.314;2022-10-16T08:57:57;7.57;;;3.40;;
31336;SDS011;22846;42.654;23.314;2022-10-16T09:00:23;6.65;;;3.78;;
31336;SDS011;22846;42.654;23.314;2022-10-16T09:03:40;7.28;;;3.90;;
31336;SDS011;22846;42.654;23.314;2022-10-16T09:12:03;9.80;;;4.15;;
31336;SDS011;22846;42.654;23.314;2022-10-16T09:22:43;16.77;;;11.20;;
31336;SDS011;22846;42.654;23.314;2022-10-16T09:25:13;23.38;;;8.25;;
31336;SDS011;22846;42.654;23.314;2022-10-16T09:27:45;10.15;;;6.45;;
31336;SDS011;22846;42.654;23.314;2022-10-16T09:30:14;13.38;;;6.43;;
31336;SDS011;22846;42.654;23.314;2022-10-16T09:32:42;16.88;;;5.60;;
31336;SDS011;22846;42.654;23.314;2022-10-16T09:35:14;11.32;;;5.75;;
31336;SDS011;22846;42.654;23.314;2022-10-16T09:37:46;13.60;;;5.75;;
31336;SDS011;22846;42.654;23.314;2022-10-16T09:40:28;12.32;;;5.57;;
31336;SDS011;22846;42.654;23.314;2022-10-16T09:43:12;11.93;;;5.03;;
31336;SDS011;22846;42.654;23.314;2022-10-16T09:45:55;13.18;;;5.28;;
31336;SDS011;22846;42.654;23.314;2022-10-16T09:48:22;10.27;;;5.30;;
31336;SDS011;22846;42.654;23.314;2022-10-16T09:50:55;10.80;;;4.97;;
31336;SDS011;22846;42.654;23.314;2022-10-16T09:53:22;12.65;;;5.20;;
31336;SDS011;22846;42.654;23.314;2022-10-16T09:55:51;14.32;;;5.63;;
31336;SDS011;22846;42.654;23.314;2022-10-16T09:58:17;14.15;;;5.05;;
31336;SDS011;22846;42.654;23.314;2022-10-16T10:00:49;19.00;;;5.20;;
31336;SDS011;22846;42.654;23.314;2022-10-16T10:03:37;13.48;;;4.40;;
31336;SDS011;22846;42.654;23.314;2022-10-16T10:16:51;9.57;;;4.00;;
31336;SDS011;22846;42.654;23.314;2022-10-16T10:19:26;7.10;;;4.07;;
31336;SDS011;22846;42.654;23.314;2022-10-16T10:21:52;14.30;;;4.47;;
31336;SDS011;22846;42.654;23.314;2022-10-16T10:24:18;17.80;;;4.30;;
31336;SDS011;22846;42.654;23.314;2022-10-16T10:26:47;7.00;;;3.95;;
31336;SDS011;22846;42.654;23.314;2022-10-16T10:29:59;6.93;;;4.00;;
31336;SDS011;22846;42.654;23.314;2022-10-16T10:36:00;10.10;;;4.20;;
31336;SDS011;22846;42.654;23.314;2022-10-16T10:38:30;7.20;;;3.75;;
31336;SDS011;22846;42.654;23.314;2022-10-16T10:41:14;12.20;;;4.40;;
31336;SDS011;22846;42.654;23.314;2022-10-16T10:44:00;7.65;;;3.83;;
31336;SDS011;22846;42.654;23.314;2022-10-16T10:46:42;11.70;;;4.15;;
31336;SDS011;22846;42.654;23.314;2022-10-16T10:57:21;7.45;;;4.00;;
31336;SDS011;22846;42.654;23.314;2022-10-16T11:02:36;12.95;;;4.30;;
31336;SDS011;22846;42.654;23.314;2022-10-16T11:08:06;7.20;;;4.07;;
31336;SDS011;22846;42.654;23.314;2022-10-16T11:11:16;8.02;;;3.70;;
31336;SDS011;22846;42.654;23.314;2022-10-16T11:16:56;9.45;;;4.03;;
31336;SDS011;22846;42.654;23.314;2022-10-16T11:21:43;7.38;;;3.70;;
31336;SDS011;22846;42.654;23.314;2022-10-16T11:24:23;5.90;;;3.90;;
31336;SDS011;22846;42.654;23.314;2022-10-16T11:27:14;4.47;;;3.35;;
31336;SDS011;22846;42.654;23.314;2022-10-16T11:29:44;7.85;;;3.45;;
31336;SDS011;22846;42.654;23.314;2022-10-16T11:32:32;5.13;;;3.47;;
31336;SDS011;22846;42.654;23.314;2022-10-16T11:35:11;6.65;;;3.58;;
31336;SDS011;22846;42.654;23.314;2022-10-16T11:37:44;6.07;;;3.60;;
31336;SDS011;22846;42.654;23.314;2022-10-16T11:40:19;5.90;;;3.70;;
31336;SDS011;22846;42.654;23.314;2022-10-16T11:42:54;4.47;;;3.20;;
31336;SDS011;22846;42.654;23.314;2022-10-16T11:45:35;5.70;;;3.17;;
31336;SDS011;22846;42.654;23.314;2022-10-16T11:48:12;7.60;;;3.40;;
31336;SDS011;22846;42.654;23.314;2022-10-16T11:53:45;7.50;;;3.60;;
31336;SDS011;22846;42.654;23.314;2022-10-16T11:56:16;11.13;;;3.33;;
31336;SDS011;22846;42.654;23.314;2022-10-16T11:59:03;7.45;;;3.20;;
31336;SDS011;22846;42.654;23.314;2022-10-16T12:06:59;4.97;;;3.40;;
31336;SDS011;22846;42.654;23.314;2022-10-16T12:09:34;6.50;;;3.15;;
31336;SDS011;22846;42.654;23.314;2022-10-16T12:12:02;5.50;;;3.15;;
31336;SDS011;22846;42.654;23.314;2022-10-16T12:14:37;4.15;;;3.10;;
31336;SDS011;22846;42.654;23.314;2022-10-16T12:17:27;6.53;;;3.13;;
31336;SDS011;22846;42.654;23.314;2022-10-16T12:19:59;6.00;;;3.25;;
31336;SDS011;22846;42.654;23.314;2022-10-16T12:22:29;6.07;;;2.92;;
31336;SDS011;22846;42.654;23.314;2022-10-16T12:24:56;4.80;;;3.20;;
31336;SDS011;22846;42.654;23.314;2022-10-16T12:27:29;5.13;;;2.92;;
31336;SDS011;22846;42.654;23.314;2022-10-16T12:29:58;6.22;;;3.15;;
31336;SDS011;22846;42.654;23.314;2022-10-16T12:32:33;3.60;;;2.80;;
31336;SDS011;22846;42.654;23.314;2022-10-16T12:35:02;3.40;;;2.90;;
31336;SDS011;22846;42.654;23.314;2022-10-16T12:39:58;4.95;;;2.80;;
31336;SDS011;22846;42.654;23.314;2022-10-16T12:44:53;3.90;;;2.80;;
31336;SDS011;22846;42.654;23.314;2022-10-16T12:49:57;6.05;;;2.70;;
31336;SDS011;22846;42.654;23.314;2022-10-16T12:52:25;3.83;;;3.25;;
31336;SDS011;22846;42.654;23.314;2022-10-16T12:54:55;3.42;;;2.55;;
31336;SDS011;22846;42.654;23.314;2022-10-16T13:00:28;4.30;;;2.67;;
31336;SDS011;22846;42.654;23.314;2022-10-16T13:06:13;3.53;;;2.67;;
31336;SDS011;22846;42.654;23.314;2022-10-16T13:19:50;4.18;;;2.55;;
31336;SDS011;22846;42.654;23.314;2022-10-16T13:28:00;3.55;;;2.30;;
31336;SDS011;22846;42.654;23.314;2022-10-16T13:30:27;3.58;;;2.60;;
31336;SDS011;22846;42.654;23.314;2022-10-16T13:33:01;4.32;;;2.67;;
31336;SDS011;22846;42.654;23.314;2022-10-16T13:35:31;5.25;;;3.00;;
31336;SDS011;22846;42.654;23.314;2022-10-16T13:38:05;3.22;;;2.60;;
31336;SDS011;22846;42.654;23.314;2022-10-16T13:40:49;3.40;;;2.60;;
31336;SDS011;22846;42.654;23.314;2022-10-16T13:43:20;4.88;;;2.95;;
31336;SDS011;22846;42.654;23.314;2022-10-16T13:45:53;3.30;;;2.45;;
31336;SDS011;22846;42.654;23.314;2022-10-16T13:48:42;3.30;;;2.58;;
31336;SDS011;22846;42.654;23.314;2022-10-16T13:51:17;22.98;;;10.20;;
31336;SDS011;22846;42.654;23.314;2022-10-16T13:53:43;15.02;;;5.25;;
31336;SDS011;22846;42.654;23.314;2022-10-16T13:56:14;12.82;;;4.38;;
31336;SDS011;22846;42.654;23.314;2022-10-16T13:58:45;12.50;;;3.92;;
31336;SDS011;22846;42.654;23.314;2022-10-16T14:01:19;12.38;;;3.70;;
31336;SDS011;22846;42.654;23.314;2022-10-16T14:03:48;17.05;;;4.65;;
31336;SDS011;22846;42.654;23.314;2022-10-16T14:06:15;14.63;;;4.20;;
31336;SDS011;22846;42.654;23.314;2022-10-16T14:08:48;18.55;;;4.68;;
31336;SDS011;22846;42.654;23.314;2022-10-16T14:11:21;15.75;;;4.60;;
31336;SDS011;22846;42.654;23.314;2022-10-16T14:13:51;27.42;;;5.82;;
31336;SDS011;22846;42.654;23.314;2022-10-16T14:16:22;12.15;;;4.30;;
31336;SDS011;22846;42.654;23.314;2022-10-16T14:18:55;15.07;;;4.80;;
31336;SDS011;22846;42.654;23.314;2022-10-16T14:21:23;19.92;;;5.07;;
31336;SDS011;22846;42.654;23.314;2022-10-16T14:23:49;15.45;;;4.80;;
31336;SDS011;22846;42.654;23.314;2022-10-16T14:26:16;15.85;;;5.03;;
31336;SDS011;22846;42.654;23.314;2022-10-16T14:28:44;16.35;;;4.63;;
31336;SDS011;22846;42.654;23.314;2022-10-16T14:31:30;19.05;;;5.20;;
31336;SDS011;22846;42.654;23.314;2022-10-16T14:33:58;18.10;;;4.88;;
31336;SDS011;22846;42.654;23.314;2022-10-16T14:36:24;17.75;;;5.05;;
31336;SDS011;22846;42.654;23.314;2022-10-16T14:41:43;14.32;;;4.90;;
31336;SDS011;22846;42.654;23.314;2022-10-16T14:44:12;14.85;;;5.18;;
31336;SDS011;22846;42.654;23.314;2022-10-16T14:46:39;15.18;;;4.45;;
31336;SDS011;22846;42.654;23.314;2022-10-16T14:51:37;14.40;;;4.70;;
31336;SDS011;22846;42.654;23.314;2022-10-16T14:56:42;18.40;;;5.15;;
31336;SDS011;22846;42.654;23.314;2022-10-16T15:02:02;17.10;;;4.45;;
31336;SDS011;22846;42.654;23.314;2022-10-16T15:04:43;19.10;;;5.27;;
31336;SDS011;22846;42.654;23.314;2022-10-16T15:07:09;18.33;;;5.05;;
31336;SDS011;22846;42.654;23.314;2022-10-16T15:09:35;12.75;;;4.38;;
31336;SDS011;22846;42.654;23.314;2022-10-16T15:12:00;23.63;;;8.73;;
31336;SDS011;22846;42.654;23.314;2022-10-16T15:14:26;22.88;;;5.68;;
31336;SDS011;22846;42.654;23.314;2022-10-16T15:16:51;13.95;;;5.15;;
31336;SDS011;22846;42.654;23.314;2022-10-16T15:19:18;18.20;;;5.15;;
31336;SDS011;22846;42.654;23.314;2022-10-16T15:21:43;13.90;;;5.20;;
31336;SDS011;22846;42.654;23.314;2022-10-16T15:24:09;20.90;;;12.60;;
31336;SDS011;22846;42.654;23.314;2022-10-16T15:26:37;39.42;;;29.08;;
31336;SDS011;22846;42.654;23.314;2022-10-16T15:29:03;25.67;;;14.23;;
31336;SDS011;22846;42.654;23.314;2022-10-16T15:31:28;24.58;;;14.50;;
31336;SDS011;22846;42.654;23.314;2022-10-16T15:33:54;23.33;;;14.15;;
31336;SDS011;22846;42.654;23.314;2022-10-16T15:36:26;22.15;;;12.30;;
31336;SDS011;22846;42.654;23.314;2022-10-16T15:38:53;16.75;;;11.32;;
31336;SDS011;22846;42.654;23.314;2022-10-16T15:41:18;20.20;;;11.23;;
31336;SDS011;22846;42.654;23.314;2022-10-16T15:43:44;16.70;;;10.00;;
31336;SDS011;22846;42.654;23.314;2022-10-16T15:46:13;21.02;;;9.82;;
31336;SDS011;22846;42.654;23.314;2022-10-16T15:48:39;13.00;;;8.63;;
31336;SDS011;22846;42.654;23.314;2022-10-16T15:51:05;12.70;;;7.72;;
31336;SDS011;22846;42.654;23.314;2022-10-16T15:53:32;12.27;;;7.32;;
31336;SDS011;22846;42.654;23.314;2022-10-16T15:56:01;10.68;;;6.50;;
31336;SDS011;22846;42.654;23.314;2022-10-16T15:58:27;26.63;;;17.67;;
31336;SDS011;22846;42.654;23.314;2022-10-16T16:00:54;40.22;;;25.05;;
31336;SDS011;22846;42.654;23.314;2022-10-16T16:03:25;44.53;;;32.15;;
31336;SDS011;22846;42.654;23.314;2022-10-16T16:05:51;46.78;;;29.08;;
31336;SDS011;22846;42.654;23.314;2022-10-16T16:08:16;50.95;;;25.67;;
31336;SDS011;22846;42.654;23.314;2022-10-16T16:10:42;51.63;;;29.80;;
31336;SDS011;22846;42.654;23.314;2022-10-16T16:13:07;48.83;;;29.55;;
31336;SDS011;22846;42.654;23.314;2022-10-16T16:15:32;49.38;;;26.30;;
31336;SDS011;22846;42.654;23.314;2022-10-16T16:17:58;35.40;;;15.02;;
31336;SDS011;22846;42.654;23.314;2022-10-16T16:20:23;32.55;;;15.55;;
31336;SDS011;22846;42.654;23.314;2022-10-16T16:22:50;38.75;;;22.17;;
31336;SDS011;22846;42.654;23.314;2022-10-16T16:25:15;37.67;;;20.25;;
31336;SDS011;22846;42.654;23.314;2022-10-16T16:27:41;38.20;;;20.73;;
31336;SDS011;22846;42.654;23.314;2022-10-16T16:30:06;35.92;;;20.38;;
31336;SDS011;22846;42.654;23.314;2022-10-16T16:32:33;39.40;;;20.08;;
31336;SDS011;22846;42.654;23.314;2022-10-16T16:34:59;40.72;;;19.30;;
31336;SDS011;22846;42.654;23.314;2022-10-16T16:37:25;37.10;;;19.55;;
31336;SDS011;22846;42.654;23.314;2022-10-16T16:39:50;38.70;;;18.98;;
31336;SDS011;22846;42.654;23.314;2022-10-16T16:42:16;38.50;;;18.08;;
31336;SDS011;22846;42.654;23.314;2022-10-16T16:44:41;35.50;;;17.90;;
31336;SDS011;22846;42.654;23.314;2022-10-16T16:47:07;29.92;;;16.63;;